Time;durP1;ratioP1;P1;durP2;ratioP2;P2;SDS_P1;SDS_P2;PMS_P1;PMS_P2;Temp;Humidity;BMP_temperature;BMP_pressure;BME280_temperature;BME280_humidity;BME280_pressure;Samples;Min_cycle;Max_cycle;Signal;HPM_P1;HPM_P2
2021/10/20 00:01:29;;;;;;;0.30;0.20;;;;;;;8.40;100.00;100365.31;5022928;28;20948;-49
2021/10/20 00:03:56;;;;;;;0.30;0.20;;;;;;;8.43;100.00;100357.28;5019436;28;21009;-48
2021/10/20 00:06:22;;;;;;;0.30;0.20;;;;;;;8.41;100.00;100359.09;5022634;28;20523;-50
2021/10/20 00:08:51;;;;;;;0.30;0.20;;;;;;;8.42;100.00;100349.38;5025944;28;20452;-47
2021/10/20 00:11:18;;;;;;;0.30;0.20;;;;;;;8.34;100.00;100362.75;5023709;28;20447;-48
2021/10/20 00:13:46;;;;;;;0.30;0.20;;;;;;;8.33;100.00;100351.25;5028756;28;20473;-49
2021/10/20 00:16:14;;;;;;;1.13;1.13;;;;;;;8.37;100.00;100353.91;5023627;28;20531;-47
2021/10/20 00:18:47;;;;;;;0.30;0.20;;;;;;;8.19;100.00;100353.28;5027902;28;20546;-48
2021/10/20 00:21:16;;;;;;;0.40;0.40;;;;;;;8.25;100.00;100361.13;5024805;28;20451;-48
2021/10/20 00:23:42;;;;;;;0.40;0.40;;;;;;;8.27;100.00;100366.41;5014282;28;20523;-48
2021/10/20 00:26:09;;;;;;;2.50;1.80;;;;;;;8.29;100.00;100375.19;5025827;28;20451;-48
2021/10/20 00:28:35;;;;;;;0.30;0.20;;;;;;;8.24;100.00;100358.50;5019201;28;20471;-48
2021/10/20 00:31:02;;;;;;;0.60;0.57;;;;;;;8.31;100.00;100357.47;5019505;28;20506;-48
2021/10/20 00:33:29;;;;;;;0.30;0.20;;;;;;;8.13;100.00;100352.53;5019248;28;20472;-47
2021/10/20 00:35:55;;;;;;;0.30;0.30;;;;;;;8.11;100.00;100349.03;5019117;28;20495;-48
2021/10/20 00:38:22;;;;;;;0.70;0.67;;;;;;;8.01;100.00;100346.53;5006349;28;20519;-49
2021/10/20 00:40:53;;;;;;;0.93;0.93;;;;;;;7.63;100.00;100349.81;5019071;28;20452;-49
2021/10/20 00:43:22;;;;;;;0.57;0.57;;;;;;;7.44;100.00;100353.66;5024805;28;20526;-48
2021/10/20 00:45:50;;;;;;;0.30;0.20;;;;;;;7.37;100.00;100355.50;5025762;28;20448;-49
2021/10/20 00:48:17;;;;;;;0.30;0.20;;;;;;;7.57;100.00;100341.13;5020356;28;20447;-49
2021/10/20 00:50:45;;;;;;;0.43;0.43;;;;;;;7.54;100.00;100341.13;5018831;28;20530;-48
2021/10/20 00:53:11;;;;;;;0.30;0.20;;;;;;;7.54;100.00;100341.13;5023855;28;21060;-48
2021/10/20 00:55:39;;;;;;;0.30;0.20;;;;;;;7.50;100.00;100340.31;5025625;28;20897;-47
2021/10/20 00:58:07;;;;;;;0.37;0.30;;;;;;;7.17;100.00;100328.47;5020796;28;20905;-48
2021/10/20 01:00:34;;;;;;;0.30;0.20;;;;;;;7.54;100.00;100335.84;5001166;28;20460;-48
2021/10/20 01:03:01;;;;;;;0.30;0.20;;;;;;;7.62;100.00;100321.63;5023224;28;20867;-48
2021/10/20 01:05:28;;;;;;;0.30;0.20;;;;;;;7.56;100.00;100320.84;5025456;28;20451;-48
2021/10/20 01:07:55;;;;;;;0.30;0.20;;;;;;;7.36;100.00;100315.84;5021424;28;20451;-50
2021/10/20 01:10:21;;;;;;;0.30;0.20;;;;;;;7.42;100.00;100308.72;5019201;28;20483;-47
2021/10/20 01:12:48;;;;;;;0.30;0.20;;;;;;;7.30;100.00;100300.09;5031866;28;20521;-48
2021/10/20 01:15:27;;;;;;;0.30;0.20;;;;;;;7.62;100.00;100300.44;5018507;28;20451;-48
2021/10/20 01:17:54;;;;;;;0.30;0.20;;;;;;;7.50;100.00;100292.72;5031956;28;20492;-48
2021/10/20 01:20:26;;;;;;;0.30;0.20;;;;;;;7.70;100.00;100295.91;5018772;28;20440;-49
2021/10/20 01:22:53;;;;;;;0.60;0.60;;;;;;;7.59;100.00;100286.41;5020028;28;20484;-51
2021/10/20 01:25:21;;;;;;;0.57;0.57;;;;;;;7.72;100.00;100280.03;5017762;28;20862;-51
2021/10/20 01:27:47;;;;;;;0.30;0.20;;;;;;;7.54;100.00;100275.91;5019251;28;20506;-51
2021/10/20 01:30:14;;;;;;;1.03;0.93;;;;;;;7.46;100.00;100272.50;5025303;28;20452;-51
2021/10/20 01:32:41;;;;;;;0.77;0.77;;;;;;;7.40;100.00;100267.31;5024759;28;20522;-51
2021/10/20 01:35:09;;;;;;;0.30;0.20;;;;;;;7.21;100.00;100263.22;4999468;28;20488;-51
2021/10/20 01:37:36;;;;;;;0.30;0.20;;;;;;;7.05;100.00;100262.56;5024879;28;20499;-50
2021/10/20 01:40:06;;;;;;;0.30;0.20;;;;;;;7.29;100.00;100254.28;5018509;28;20953;-51
2021/10/20 01:42:33;;;;;;;0.30;0.20;;;;;;;7.39;100.00;100253.22;5018263;28;20476;-50
2021/10/20 01:44:59;;;;;;;2.70;2.30;;;;;;;7.43;100.00;100248.78;5024934;28;20448;-51
2021/10/20 01:47:26;;;;;;;0.30;0.20;;;;;;;7.33;100.00;100232.16;5025148;28;20444;-50
2021/10/20 01:49:54;;;;;;;0.43;0.43;;;;;;;7.26;100.00;100230.50;5018037;28;20820;-50
2021/10/20 01:52:21;;;;;;;0.30;0.20;;;;;;;7.26;100.00;100222.59;5005871;28;20989;-50
2021/10/20 01:54:48;;;;;;;0.30;0.20;;;;;;;7.30;100.00;100229.59;5019214;28;20505;-50
2021/10/20 01:57:14;;;;;;;0.30;0.20;;;;;;;7.37;100.00;100222.41;5020563;28;20444;-50
2021/10/20 01:59:41;;;;;;;0.30;0.20;;;;;;;7.43;100.00;100220.56;5027679;28;20855;-51
2021/10/20 02:02:16;;;;;;;0.30;0.20;;;;;;;7.36;100.00;100207.44;5028359;28;20458;-51
2021/10/20 02:04:43;;;;;;;0.30;0.20;;;;;;;7.39;100.00;100204.75;5023793;28;20503;-50
2021/10/20 02:07:10;;;;;;;0.30;0.20;;;;;;;7.32;100.00;100208.41;5021513;28;20453;-50
2021/10/20 02:09:36;;;;;;;2.77;2.40;;;;;;;7.40;100.00;100199.47;5026201;28;20482;-50
2021/10/20 02:12:04;;;;;;;0.30;0.20;;;;;;;7.33;100.00;100196.94;5015300;28;20810;-50
2021/10/20 02:14:30;;;;;;;0.30;0.20;;;;;;;7.45;100.00;100187.91;5025443;28;20505;-50
2021/10/20 02:16:57;;;;;;;0.33;0.23;;;;;;;7.47;100.00;100186.13;5034970;28;20459;-50
2021/10/20 02:19:24;;;;;;;0.30;0.20;;;;;;;7.57;100.00;100188.56;5024332;28;20495;-50
2021/10/20 02:21:51;;;;;;;0.30;0.20;;;;;;;7.61;100.00;100187.63;5028146;28;20452;-51
2021/10/20 02:24:17;;;;;;;0.30;0.20;;;;;;;7.60;100.00;100174.41;5015725;28;21006;-50
2021/10/20 02:26:44;;;;;;;0.30;0.20;;;;;;;7.62;100.00;100172.63;5028235;28;20453;-50
2021/10/20 02:29:11;;;;;;;0.30;0.20;;;;;;;7.65;100.00;100178.72;5025378;28;20498;-51
2021/10/20 02:31:37;;;;;;;0.33;0.23;;;;;;;7.61;100.00;100166.44;5021282;28;20944;-50
2021/10/20 02:34:04;;;;;;;0.30;0.20;;;;;;;7.66;100.00;100169.00;5034523;28;20471;-51
2021/10/20 02:36:31;;;;;;;0.30;0.20;;;;;;;7.63;100.00;100161.13;5003537;28;20455;-50
2021/10/20 02:38:57;;;;;;;0.87;0.47;;;;;;;7.64;100.00;100165.50;5023449;28;20880;-50
2021/10/20 02:41:24;;;;;;;0.40;0.30;;;;;;;7.61;100.00;100161.16;5031996;28;20487;-51
2021/10/20 02:43:50;;;;;;;0.33;0.23;;;;;;;7.63;100.00;100154.06;5012671;28;20469;-51
2021/10/20 02:46:17;;;;;;;0.30;0.20;;;;;;;7.68;100.00;100154.00;5016656;28;20521;-51
2021/10/20 02:48:44;;;;;;;9.53;1.43;;;;;;;7.63;100.00;100139.97;5034163;28;20933;-51
2021/10/20 02:51:12;;;;;;;0.30;0.20;;;;;;;7.51;100.00;100156.94;5029635;28;20448;-51
2021/10/20 02:53:38;;;;;;;0.43;0.40;;;;;;;7.51;100.00;100153.41;5021199;28;21075;-51
2021/10/20 02:56:05;;;;;;;0.40;0.40;;;;;;;7.56;100.00;100154.22;5027560;28;20452;-51
2021/10/20 02:58:31;;;;;;;0.30;0.20;;;;;;;7.47;100.00;100141.16;5025468;28;20491;-51
2021/10/20 03:00:58;;;;;;;0.40;0.27;;;;;;;7.46;100.00;100147.34;5020751;28;20448;-50
2021/10/20 03:03:25;;;;;;;0.30;0.20;;;;;;;7.18;100.00;100145.19;5022587;28;20472;-51
2021/10/20 03:05:52;;;;;;;0.30;0.20;;;;;;;7.38;100.00;100145.69;5027153;28;20460;-51
2021/10/20 03:08:19;;;;;;;4.20;1.43;;;;;;;7.50;100.00;100149.91;5024766;28;20444;-51
2021/10/20 03:10:45;;;;;;;0.30;0.20;;;;;;;7.46;100.00;100155.28;5021372;28;20476;-51
2021/10/20 03:13:12;;;;;;;0.30;0.20;;;;;;;7.45;100.00;100151.78;5033785;28;20537;-50
2021/10/20 03:15:38;;;;;;;0.63;0.60;;;;;;;7.39;100.00;100151.84;5020296;28;20481;-50
2021/10/20 03:18:05;;;;;;;0.30;0.20;;;;;;;7.27;100.00;100150.34;5033544;28;20483;-51
2021/10/20 03:20:31;;;;;;;0.40;0.30;;;;;;;7.27;100.00;100150.34;5020171;28;20448;-51
2021/10/20 03:22:58;;;;;;;0.30;0.20;;;;;;;7.28;100.00;100154.72;5020510;28;20514;-51
2021/10/20 03:25:26;;;;;;;5.53;1.20;;;;;;;7.03;100.00;100142.81;5021052;28;20968;-51
2021/10/20 03:27:53;;;;;;;0.40;0.40;;;;;;;7.22;100.00;100138.06;5020228;28;20455;-51
2021/10/20 03:30:21;;;;;;;0.30;0.20;;;;;;;7.12;100.00;100129.44;5007152;28;20578;-51
2021/10/20 03:32:49;;;;;;;0.30;0.20;;;;;;;7.16;100.00;100140.84;5020038;28;20468;-50
2021/10/20 03:35:17;;;;;;;0.30;0.20;;;;;;;7.31;100.00;100138.78;5026254;28;20480;-50
2021/10/20 03:37:44;;;;;;;0.30;0.20;;;;;;;7.32;100.00;100135.25;5026791;28;20443;-51
2021/10/20 03:40:11;;;;;;;0.30;0.20;;;;;;;7.17;100.00;100124.06;5021628;28;20455;-51
2021/10/20 03:42:38;;;;;;;0.30;0.20;;;;;;;7.26;100.00;100123.91;5019867;28;20445;-50
2021/10/20 03:45:05;;;;;;;0.40;0.30;;;;;;;7.13;100.00;100117.97;5025135;28;20456;-50
2021/10/20 03:47:32;;;;;;;1.90;0.93;;;;;;;7.19;100.00;100120.50;5026189;28;20936;-51
2021/10/20 03:49:59;;;;;;;0.30;0.20;;;;;;;7.26;100.00;100126.53;5021921;28;20448;-51
2021/10/20 03:52:26;;;;;;;0.30;0.20;;;;;;;7.38;100.00;100126.31;5019584;28;20519;-51
2021/10/20 03:54:52;;;;;;;0.30;0.20;;;;;;;7.37;100.00;100127.22;5027555;28;20451;-50
2021/10/20 03:57:19;;;;;;;1.53;1.17;;;;;;;7.20;100.00;100118.72;5019614;28;20514;-50
2021/10/20 03:59:45;;;;;;;0.30;0.20;;;;;;;7.29;100.00;100124.75;5023712;28;20822;-50
2021/10/20 04:02:13;;;;;;;0.30;0.20;;;;;;;7.29;100.00;100121.22;5015725;28;20953;-51
2021/10/20 04:04:40;;;;;;;0.30;0.20;;;;;;;7.29;100.00;100115.94;5022828;28;20468;-50
2021/10/20 04:07:07;;;;;;;0.30;0.20;;;;;;;7.27;100.00;100109.81;5026334;28;20510;-50
2021/10/20 04:09:34;;;;;;;0.30;0.20;;;;;;;7.23;100.00;100106.31;5023098;28;20497;-51
2021/10/20 04:12:01;;;;;;;0.63;0.63;;;;;;;7.35;100.00;100111.41;5029231;28;20495;-50
2021/10/20 04:14:27;;;;;;;0.40;0.27;;;;;;;7.32;100.00;100119.38;5012867;28;20523;-50
2021/10/20 04:16:54;;;;;;;0.40;0.40;;;;;;;7.23;100.00;100111.63;5029042;28;20488;-51
2021/10/20 04:19:20;;;;;;;0.40;0.20;;;;;;;7.32;100.00;100122.03;5022736;28;20616;-51
2021/10/20 04:21:47;;;;;;;0.30;0.20;;;;;;;7.26;100.00;100132.69;5016011;28;20448;-51
2021/10/20 04:24:13;;;;;;;0.30;0.20;;;;;;;7.34;100.00;100140.50;5022157;28;20523;-51
2021/10/20 04:26:40;;;;;;;5.73;2.47;;;;;;;7.36;100.00;100136.94;5025837;28;20991;-51
2021/10/20 04:29:07;;;;;;;0.80;0.80;;;;;;;7.38;100.00;100131.59;5022724;28;20448;-51
2021/10/20 04:31:33;;;;;;;0.30;0.20;;;;;;;7.46;100.00;100126.19;5019227;28;20448;-51
2021/10/20 04:34:00;;;;;;;0.30;0.20;;;;;;;7.37;100.00;100125.44;5022020;28;20481;-51
2021/10/20 04:36:26;;;;;;;0.67;0.67;;;;;;;7.46;100.00;100124.41;5025787;28;20491;-51
2021/10/20 04:38:53;;;;;;;0.30;0.20;;;;;;;7.37;100.00;100130.75;5023030;28;20488;-51
2021/10/20 04:41:20;;;;;;;0.30;0.30;;;;;;;7.34;100.00;100117.59;5018967;28;20494;-51
2021/10/20 04:43:46;;;;;;;0.30;0.20;;;;;;;7.38;100.00;100121.91;5010772;28;20563;-51
2021/10/20 04:46:13;;;;;;;0.30;0.30;;;;;;;7.39;100.00;100128.06;5023135;28;20452;-51
2021/10/20 04:48:39;;;;;;;0.30;0.20;;;;;;;7.34;100.00;100125.50;5023052;28;20534;-51
2021/10/20 04:51:06;;;;;;;0.40;0.20;;;;;;;7.40;100.00;100116.59;5014709;28;20452;-51
2021/10/20 04:53:34;;;;;;;0.30;0.20;;;;;;;7.30;100.00;100118.53;5020008;28;20473;-52
2021/10/20 04:56:00;;;;;;;0.40;0.40;;;;;;;7.40;100.00;100109.56;5007931;28;20507;-52
2021/10/20 04:58:27;;;;;;;1.53;0.83;;;;;;;7.46;100.00;100090.03;5023253;28;20519;-51
2021/10/20 05:00:54;;;;;;;0.30;0.20;;;;;;;7.48;100.00;100090.00;5014453;28;20507;-51
2021/10/20 05:03:20;;;;;;;0.30;0.30;;;;;;;7.57;100.00;100072.19;5023458;28;20493;-51
2021/10/20 05:05:47;;;;;;;0.30;0.20;;;;;;;7.53;100.00;100081.06;5018723;28;20505;-52
2021/10/20 05:08:13;;;;;;;0.53;0.50;;;;;;;7.53;100.00;100077.56;5020899;28;20483;-51
2021/10/20 05:10:40;;;;;;;0.30;0.20;;;;;;;7.54;100.00;100063.44;5030011;28;20443;-51
2021/10/20 05:13:07;;;;;;;0.30;0.20;;;;;;;7.59;100.00;100056.31;5031709;28;20471;-51
2021/10/20 05:15:33;;;;;;;0.30;0.20;;;;;;;7.67;100.00;100057.88;5013300;28;20506;-52
2021/10/20 05:18:00;;;;;;;0.30;0.20;;;;;;;7.55;100.00;100047.56;5024220;28;20548;-51
2021/10/20 05:20:26;;;;;;;0.30;0.20;;;;;;;7.64;100.00;100062.34;5018491;28;20519;-51
2021/10/20 05:22:53;;;;;;;2.50;2.20;;;;;;;7.67;100.00;100047.28;5019593;28;20484;-51
2021/10/20 05:25:20;;;;;;;0.30;0.20;;;;;;;7.65;100.00;100051.75;5018201;28;20490;-51
2021/10/20 05:27:47;;;;;;;0.30;0.20;;;;;;;7.63;100.00;100047.38;5019356;28;20460;-51
2021/10/20 05:30:14;;;;;;;0.30;0.20;;;;;;;7.62;100.00;100035.06;5030924;28;20531;-51
2021/10/20 05:32:41;;;;;;;0.30;0.20;;;;;;;7.79;100.00;100030.28;5022732;28;20472;-51
2021/10/20 05:35:08;;;;;;;0.60;0.60;;;;;;;7.81;100.00;100023.22;5029190;28;20502;-51
2021/10/20 05:37:34;;;;;;;0.30;0.20;;;;;;;8.08;100.00;100028.78;5028309;28;20448;-51
2021/10/20 05:40:01;;;;;;;0.30;0.20;;;;;;;8.10;100.00;100025.22;5021706;28;21058;-50
2021/10/20 05:42:28;;;;;;;0.30;0.20;;;;;;;8.11;100.00;100034.88;5022941;28;20933;-51
2021/10/20 05:44:54;;;;;;;0.30;0.20;;;;;;;8.18;100.00;100032.97;5028695;28;20448;-51
2021/10/20 05:47:21;;;;;;;0.30;0.20;;;;;;;8.28;100.00;100034.50;5028684;28;20451;-51
2021/10/20 05:49:49;;;;;;;0.30;0.20;;;;;;;8.29;100.00;100046.81;5015891;28;20449;-51
2021/10/20 05:52:16;;;;;;;0.87;0.87;;;;;;;8.20;100.00;100042.59;5028560;28;20451;-51
2021/10/20 05:54:42;;;;;;;0.30;0.20;;;;;;;8.24;100.00;100039.00;5008853;28;20472;-51
2021/10/20 05:57:09;;;;;;;0.40;0.30;;;;;;;8.26;100.00;100037.19;5028597;28;20459;-51
2021/10/20 05:59:36;;;;;;;0.30;0.20;;;;;;;8.31;100.00;100029.13;5028981;28;20582;-51
2021/10/20 06:02:02;;;;;;;0.30;0.20;;;;;;;8.43;100.00;100035.94;5028617;28;20452;-51
2021/10/20 06:04:29;;;;;;;0.30;0.30;;;;;;;8.40;100.00;100026.28;5009202;28;20476;-52
2021/10/20 06:06:56;;;;;;;0.30;0.20;;;;;;;8.43;100.00;100018.28;5008511;28;20508;-50
2021/10/20 06:09:26;;;;;;;0.30;0.20;;;;;;;8.63;100.00;100009.81;5022575;28;20443;-51
2021/10/20 06:11:53;;;;;;;0.30;0.20;;;;;;;8.70;100.00;99994.66;5035159;28;20480;-51
2021/10/20 06:14:20;;;;;;;0.30;0.20;;;;;;;8.81;100.00;100006.72;5026128;28;20481;-52
2021/10/20 06:16:47;;;;;;;0.40;0.30;;;;;;;8.92;100.00;99989.69;5030836;28;20519;-51
2021/10/20 06:19:13;;;;;;;0.53;0.53;;;;;;;8.96;100.00;99994.84;5025940;28;20491;-51
2021/10/20 06:21:40;;;;;;;0.30;0.20;;;;;;;8.97;100.00;99983.31;5030494;28;20498;-52
2021/10/20 06:24:06;;;;;;;0.40;0.40;;;;;;;9.07;100.00;99986.59;5033907;28;20467;-52
2021/10/20 06:26:33;;;;;;;0.70;0.70;;;;;;;9.18;100.00;99979.19;5021648;28;20456;-51
2021/10/20 06:29:00;;;;;;;0.30;0.30;;;;;;;9.24;100.00;99973.75;5025709;28;20502;-51
2021/10/20 06:31:26;;;;;;;0.30;0.20;;;;;;;9.23;100.00;99961.41;5010479;28;20610;-52
2021/10/20 06:33:53;;;;;;;0.30;0.20;;;;;;;9.42;100.00;99970.56;5014907;28;20472;-51
2021/10/20 06:36:30;;;;;;;0.30;0.20;;;;;;;9.52;100.00;99971.16;5027648;28;20510;-51
2021/10/20 06:38:58;;;;;;;0.30;0.20;;;;;;;9.57;100.00;99968.34;5026261;28;20487;-51
2021/10/20 06:41:26;;;;;;;0.30;0.20;;;;;;;9.56;100.00;99956.00;5021099;28;20451;-51
2021/10/20 06:43:53;;;;;;;1.53;1.53;;;;;;;9.73;100.00;99977.59;5022389;28;20469;-51
2021/10/20 06:46:19;;;;;;;0.30;0.20;;;;;;;9.79;100.00;99978.28;5027818;28;20506;-51
2021/10/20 06:48:47;;;;;;;0.30;0.20;;;;;;;9.88;100.00;99981.59;5014839;28;20459;-51
2021/10/20 06:51:14;;;;;;;0.30;0.20;;;;;;;9.92;100.00;99973.47;5027673;28;20453;-50
2021/10/20 06:53:40;;;;;;;1.23;1.23;;;;;;;10.06;100.00;99965.94;5022178;28;20503;-51
2021/10/20 06:56:07;;;;;;;0.70;0.67;;;;;;;10.12;100.00;99971.97;5027541;28;20866;-51
2021/10/20 06:58:35;;;;;;;0.30;0.30;;;;;;;10.17;100.00;99962.97;5009494;28;20506;-51
2021/10/20 07:01:03;;;;;;;0.30;0.20;;;;;;;10.26;100.00;99967.13;5020409;28;21039;-51
2021/10/20 07:03:29;;;;;;;0.53;0.53;;;;;;;10.32;100.00;99978.44;4990202;28;20873;-51
2021/10/20 07:05:56;;;;;;;0.30;0.20;;;;;;;10.43;100.00;99975.44;5007769;28;20908;-52
2021/10/20 07:08:23;;;;;;;0.30;0.20;;;;;;;10.73;100.00;99976.19;5020717;28;20453;-51
2021/10/20 07:10:49;;;;;;;0.30;0.20;;;;;;;10.91;100.00;99996.81;5033303;28;20447;-52
2021/10/20 07:13:20;;;;;;;0.30;0.20;;;;;;;11.11;100.00;99996.13;5033700;28;21011;-52
2021/10/20 07:15:47;;;;;;;0.30;0.20;;;;;;;11.28;100.00;99998.19;5021273;28;20452;-51
2021/10/20 07:18:14;;;;;;;0.40;0.40;;;;;;;11.48;100.00;99985.00;5032481;28;20459;-52
2021/10/20 07:20:41;;;;;;;0.30;0.20;;;;;;;11.28;100.00;99972.44;5021814;28;20486;-51
2021/10/20 07:23:07;;;;;;;0.40;0.37;;;;;;;11.33;100.00;99979.38;5020647;28;20539;-51
2021/10/20 07:25:34;;;;;;;0.30;0.20;;;;;;;11.48;100.00;99990.31;5022142;28;20800;-51
2021/10/20 07:28:01;;;;;;;0.60;0.60;;;;;;;11.70;100.00;99992.19;5020423;28;20491;-51
2021/10/20 07:30:28;;;;;;;0.30;0.20;;;;;;;11.82;100.00;99991.75;5025560;28;20924;-52
2021/10/20 07:32:54;;;;;;;0.30;0.20;;;;;;;11.72;100.00;99988.53;5026787;28;20472;-51
2021/10/20 07:35:21;;;;;;;0.50;0.50;;;;;;;11.78;100.00;99979.44;5021993;28;20448;-52
2021/10/20 07:37:48;;;;;;;1.70;1.70;;;;;;;11.73;100.00;99976.94;5019999;28;20452;-51
2021/10/20 07:40:16;;;;;;;0.30;0.20;;;;;;;11.81;100.00;99988.22;5025167;28;20550;-52
2021/10/20 07:42:44;;;;;;;1.40;1.37;;;;;;;11.81;100.00;99969.59;5028643;28;20551;-52
2021/10/20 07:45:18;;;;;;;0.30;0.20;;;;;;;11.73;100.00;99962.78;5024210;28;21339;-51
2021/10/20 07:47:46;;;;;;;2.60;2.50;;;;;;;11.80;100.00;99948.34;5026795;28;20507;-52
2021/10/20 07:50:15;;;;;;;0.30;0.20;;;;;;;11.82;100.00;99950.00;5023852;28;20448;-52
2021/10/20 07:52:47;;;;;;;0.30;0.20;;;;;;;11.83;100.00;99940.22;5019644;28;20585;-52
2021/10/20 07:55:16;;;;;;;1.17;0.50;;;;;;;12.12;100.00;99939.06;5026852;28;20509;-51
2021/10/20 07:57:44;;;;;;;0.30;0.20;;;;;;;12.25;100.00;99926.97;5019551;28;21013;-52
2021/10/20 08:00:11;;;;;;;0.97;0.97;;;;;;;12.32;100.00;99923.09;5020820;28;20544;-52
2021/10/20 08:02:38;;;;;;;0.30;0.30;;;;;;;12.50;100.00;99897.50;5026272;28;20524;-52
2021/10/20 08:05:05;;;;;;;0.50;0.50;;;;;;;12.52;100.00;99890.28;5013270;28;20452;-52
2021/10/20 08:07:32;;;;;;;2.30;0.63;;;;;;;12.74;100.00;99861.75;5019793;28;20875;-51
2021/10/20 08:09:58;;;;;;;0.30;0.30;;;;;;;12.85;100.00;99858.59;5019488;28;20459;-52
2021/10/20 08:12:25;;;;;;;0.30;0.20;;;;;;;13.01;100.00;99893.44;5032581;28;20491;-51
2021/10/20 08:14:55;;;;;;;0.30;0.20;;;;;;;13.20;100.00;99907.75;5020029;28;20452;-51
2021/10/20 08:17:22;;;;;;;0.33;0.23;;;;;;;13.41;100.00;99899.69;5020169;28;20666;-52
2021/10/20 08:19:49;;;;;;;0.30;0.20;;;;;;;13.54;100.00;99900.84;5031918;28;20529;-51
2021/10/20 08:22:15;;;;;;;0.30;0.20;;;;;;;13.74;100.00;99906.13;5020162;28;20452;-51
2021/10/20 08:24:42;;;;;;;0.30;0.20;;;;;;;13.80;100.00;99907.63;5018718;28;20476;-51
2021/10/20 08:27:09;;;;;;;0.30;0.20;;;;;;;13.94;100.00;99918.50;5020282;28;20487;-51
2021/10/20 08:29:37;;;;;;;0.30;0.20;;;;;;;14.04;100.00;99911.78;5017029;28;20514;-52
2021/10/20 08:32:05;;;;;;;0.40;0.30;;;;;;;14.01;100.00;99905.72;5024511;28;20957;-52
2021/10/20 08:34:32;;;;;;;0.30;0.20;;;;;;;14.22;100.00;99905.53;5025581;28;20471;-52
2021/10/20 08:36:58;;;;;;;1.17;0.60;;;;;;;14.21;100.00;99903.78;5021186;28;20448;-52
2021/10/20 08:39:25;;;;;;;0.30;0.20;;;;;;;14.33;100.00;99896.97;5017039;28;20487;-52
2021/10/20 08:41:54;;;;;;;0.30;0.20;;;;;;;14.35;100.00;99896.88;5021421;28;20949;-52
2021/10/20 08:44:22;;;;;;;0.30;0.20;;;;;;;14.36;100.00;99907.50;5016413;28;21354;-52
2021/10/20 08:46:52;;;;;;;0.40;0.30;;;;;;;14.35;100.00;99905.78;5004921;28;20514;-52
2021/10/20 08:49:19;;;;;;;0.30;0.20;;;;;;;14.54;100.00;99897.75;5018792;28;20941;-52
2021/10/20 08:51:47;;;;;;;0.40;0.40;;;;;;;14.50;100.00;99882.78;5021938;28;20460;-52
2021/10/20 08:54:13;;;;;;;0.30;0.20;;;;;;;14.57;100.00;99878.84;5016231;28;20495;-52
2021/10/20 08:56:44;;;;;;;0.30;0.20;;;;;;;14.76;100.00;99886.78;5021382;28;20453;-53
2021/10/20 08:59:11;;;;;;;0.30;0.20;;;;;;;14.79;100.00;99873.22;5017110;28;20830;-52
2021/10/20 09:01:39;;;;;;;0.53;0.53;;;;;;;14.71;100.00;99854.06;5020898;28;20483;-52
2021/10/20 09:04:07;;;;;;;0.30;0.20;;;;;;;14.88;100.00;99848.66;5025487;28;21005;-52
2021/10/20 09:06:35;;;;;;;0.30;0.20;;;;;;;15.08;100.00;99861.00;5026946;28;20451;-51
2021/10/20 09:09:07;;;;;;;0.30;0.20;;;;;;;15.27;100.00;99847.47;5004467;28;20427;-52
2021/10/20 09:11:34;;;;;;;0.40;0.30;;;;;;;15.46;100.00;99853.53;5029061;28;20519;-52
2021/10/20 09:14:12;;;;;;;0.93;0.93;;;;;;;15.52;100.00;99853.19;5029952;28;20862;-52
2021/10/20 09:16:42;;;;;;;0.33;0.23;;;;;;;15.62;100.00;99856.22;5030729;28;20451;-52
2021/10/20 09:19:12;;;;;;;0.57;0.57;;;;;;;15.75;100.00;99843.00;5028229;28;20423;-52
2021/10/20 09:22:08;;;;;;;0.37;0.30;;;;;;;15.71;100.00;99842.31;5029360;28;21386;-52
2021/10/20 09:24:38;;;;;;;0.30;0.20;;;;;;;15.76;100.00;99828.66;5016109;28;20521;-52
2021/10/20 09:27:17;;;;;;;0.30;0.20;;;;;;;15.81;100.00;99830.13;5030233;28;20571;-51
2021/10/20 09:29:44;;;;;;;0.50;0.50;;;;;;;15.85;100.00;99829.00;5027927;28;20474;-52
2021/10/20 09:32:11;;;;;;;0.40;0.40;;;;;;;15.83;100.00;99822.88;5004316;28;20449;-52
2021/10/20 09:34:39;;;;;;;2.63;0.70;;;;;;;15.96;100.00;99823.03;5030357;28;20506;-52
2021/10/20 09:37:07;;;;;;;0.40;0.20;;;;;;;15.92;100.00;99813.44;5036189;28;20461;-52
2021/10/20 09:39:37;;;;;;;0.30;0.20;;;;;;;16.13;100.00;99808.63;5022202;28;20531;-52
2021/10/20 09:42:12;;;;;;;0.30;0.20;;;;;;;16.21;100.00;99803.69;5026575;28;20491;-52
2021/10/20 09:44:50;;;;;;;4.83;1.27;;;;;;;16.23;100.00;99796.41;5019703;28;21049;-52
2021/10/20 09:47:18;;;;;;;0.40;0.30;;;;;;;16.24;100.00;99799.00;5023523;28;20422;-52
2021/10/20 09:49:54;;;;;;;0.40;0.40;;;;;;;16.37;100.00;99798.25;5028966;28;20593;-52
2021/10/20 09:52:25;;;;;;;0.60;0.60;;;;;;;16.37;100.00;99807.16;5016070;28;20439;-52
2021/10/20 09:54:52;;;;;;;0.30;0.20;;;;;;;16.32;100.00;99801.22;5029486;28;20459;-52
2021/10/20 09:57:29;;;;;;;0.50;0.50;;;;;;;16.33;100.00;99788.69;5022471;28;20477;-52
2021/10/20 09:59:56;;;;;;;0.63;0.63;;;;;;;16.40;100.00;99788.19;5025532;28;20521;-52
2021/10/20 10:02:24;;;;;;;0.87;0.87;;;;;;;16.54;100.00;99787.34;5028794;28;21015;-52
2021/10/20 10:04:51;;;;;;;0.50;0.50;;;;;;;16.52;100.00;99776.72;4998259;28;20953;-52
2021/10/20 10:07:18;;;;;;;0.30;0.20;;;;;;;16.64;100.00;99788.53;5029087;28;20462;-52
2021/10/20 10:09:44;;;;;;;0.30;0.20;;;;;;;16.63;100.00;99788.63;5025774;28;20426;-52
2021/10/20 10:12:24;;;;;;;0.30;0.20;;;;;;;16.61;100.00;99787.84;5035315;28;20444;-52
2021/10/20 10:14:59;;;;;;;0.80;0.80;;;;;;;16.64;100.00;99793.88;5035185;28;20929;-52
2021/10/20 10:17:49;;;;;;;0.40;0.33;;;;;;;16.49;100.00;99784.97;5028291;28;20538;-52
2021/10/20 10:20:17;;;;;;;0.40;0.30;;;;;;;16.54;100.00;99765.88;5021451;28;20907;-52
2021/10/20 10:22:46;;;;;;;0.30;0.20;;;;;;;16.30;100.00;99760.19;5023603;28;20451;-53
2021/10/20 10:25:13;;;;;;;0.40;0.40;;;;;;;16.30;100.00;99757.50;5019682;28;20498;-53
2021/10/20 10:28:00;;;;;;;0.60;0.60;;;;;;;16.35;100.00;99768.84;5023247;28;20444;-53
2021/10/20 10:30:31;;;;;;;0.40;0.20;;;;;;;16.44;100.00;99762.03;5010558;28;20497;-52
2021/10/20 10:32:58;;;;;;;0.30;0.20;;;;;;;16.45;100.00;99753.06;5021356;28;20493;-52
2021/10/20 10:35:35;;;;;;;0.40;0.20;;;;;;;16.52;100.00;99747.19;5017296;28;20477;-53
2021/10/20 10:38:04;;;;;;;0.30;0.20;;;;;;;16.65;100.00;99743.75;5015117;28;20501;-52
2021/10/20 10:40:32;;;;;;;0.37;0.20;;;;;;;16.74;100.00;99732.50;5023854;28;20972;-52
2021/10/20 10:43:07;;;;;;;0.40;0.20;;;;;;;16.81;100.00;99731.13;5018840;28;20471;-52
2021/10/20 10:45:34;;;;;;;0.37;0.23;;;;;;;16.76;100.00;99734.13;5022651;28;20431;-52
2021/10/20 10:48:05;;;;;;;0.40;0.20;;;;;;;16.86;100.00;99727.22;5010226;28;20504;-52
2021/10/20 10:50:53;;;;;;;0.40;0.30;;;;;;;16.87;100.00;99722.72;5014598;28;20445;-52
2021/10/20 10:53:31;;;;;;;0.30;0.20;;;;;;;16.97;100.00;99718.44;5021612;28;20464;-53
2021/10/20 10:56:08;;;;;;;0.70;0.70;;;;;;;16.93;100.00;99716.94;5027423;28;20449;-52
2021/10/20 10:58:54;;;;;;;0.30;0.20;;;;;;;17.00;100.00;99709.38;5026155;28;20449;-52
2021/10/20 11:01:44;;;;;;;0.30;0.20;;;;;;;17.04;100.00;99709.06;4993615;28;20975;-52
2021/10/20 11:04:14;;;;;;;0.30;0.20;;;;;;;17.07;100.00;99698.09;5020595;28;20959;-52
2021/10/20 11:06:41;;;;;;;0.43;0.43;;;;;;;17.15;100.00;99703.00;5023244;28;20504;-52
2021/10/20 11:09:08;;;;;;;0.40;0.20;;;;;;;17.18;100.00;99697.41;5027414;28;20428;-53
2021/10/20 11:11:35;;;;;;;0.37;0.20;;;;;;;17.22;100.00;99698.06;5027011;28;20448;-53
2021/10/20 11:14:02;;;;;;;0.37;0.20;;;;;;;17.48;100.00;99697.22;5035186;28;20468;-53
2021/10/20 11:16:29;;;;;;;0.40;0.20;;;;;;;17.41;100.00;99674.41;5021295;28;20514;-52
2021/10/20 11:18:55;;;;;;;0.40;0.30;;;;;;;17.35;100.00;99677.50;5000976;28;20511;-52
2021/10/20 11:21:23;;;;;;;1.27;1.27;;;;;;;17.38;100.00;99670.09;5027602;28;20557;-51
2021/10/20 11:23:49;;;;;;;0.40;0.20;;;;;;;17.46;100.00;99670.44;5013913;28;20534;-52
2021/10/20 11:26:16;;;;;;;0.40;0.30;;;;;;;17.48;100.00;99698.06;5027368;28;20827;-51
2021/10/20 11:28:43;;;;;;;0.30;0.20;;;;;;;17.59;100.00;99696.50;5019804;28;20496;-53
2021/10/20 11:31:10;;;;;;;0.40;0.20;;;;;;;17.71;100.00;99691.19;5020582;28;20426;-52